^^
Your Local Weather - Clay, NY Station Historical Data
Daily Summary for March 8, 2017 Units:  English    Metric   Both
« Previous Day
Next Day »
Daily Weekly Monthly Yearly Custom
  High: Low: Average:
Temperature: 52.9 °F 33.7 °F 43.9 °F
Dew Point: 41.3 °F 14.7 °F 28.9 °F
Humidity: 93% 25% 61%
Wind Speed: 11.0mph 0.0mph 4.2mph
Wind Gust: 20.0mph - -
Wind- - WSW
Pressure: 29.95 in 29.70 in -
Precipitation: 0.25 in    
Historical Graphs
 
 
Tabular Data for March 8, 2017
Time Temperature Dew Point Pressure Wind Wind Speed Wind Gust Humidity Rainfall Rate (Hourly) solar
00:02 44.9 °F 41.3 °F 29.84 in WNW 7.0 mph 10.0 mph 87% 0.07 in 0 W/m2
00:08 44.3 °F 40.7 °F 29.84 in NW 7.0 mph 14.0 mph 87% 0.05 in 0 W/m2
00:14 43.7 °F 40.1 °F 29.84 in West 7.0 mph 7.0 mph 87% 0.05 in 0 W/m2
00:20 43.3 °F 40.0 °F 29.84 in WNW 6.0 mph 6.0 mph 88% 0.04 in 0 W/m2
00:26 43.1 °F 39.8 °F 29.84 in WNW 5.0 mph 6.0 mph 88% 0.00 in 0 W/m2
00:32 42.9 °F 39.6 °F 29.84 in West 4.0 mph 4.0 mph 88% 0.00 in 0 W/m2
00:38 42.8 °F 39.5 °F 29.85 in WNW 4.0 mph 4.0 mph 88% 0.00 in 0 W/m2
00:44 42.8 °F 39.5 °F 29.85 in NW 3.0 mph 4.0 mph 88% 0.00 in 0 W/m2
00:50 42.7 °F 39.4 °F 29.85 in NNW 3.0 mph 3.0 mph 88% 0.00 in 0 W/m2
00:56 42.6 °F 39.3 °F 29.85 in West 3.0 mph 5.0 mph 88% 0.00 in 0 W/m2
01:02 42.7 °F 39.1 °F 29.87 in West 3.0 mph 4.0 mph 87% 0.00 in 0 W/m2
01:08 42.5 °F 38.9 °F 29.87 in NW 4.0 mph 4.0 mph 87% 0.00 in 0 W/m2
01:14 42.4 °F 38.5 °F 29.87 in NNW 3.0 mph 6.0 mph 86% 0.00 in 0 W/m2
01:20 42.2 °F 38.3 °F 29.88 in WNW 2.0 mph 2.0 mph 86% 0.00 in 0 W/m2
01:26 42.0 °F 38.1 °F 29.89 in West 2.0 mph 4.0 mph 86% 0.00 in 0 W/m2
01:32 41.9 °F 38.0 °F 29.90 in WSW 2.0 mph 5.0 mph 86% 0.00 in 0 W/m2
01:38 41.8 °F 38.2 °F 29.90 in NW 2.0 mph 5.0 mph 87% 0.00 in 0 W/m2
01:44 41.6 °F 38.0 °F 29.90 in WSW 3.0 mph 9.0 mph 87% 0.09 in 0 W/m2
01:50 41.5 °F 37.9 °F 29.89 in WNW 3.0 mph 3.0 mph 87% 0.08 in 0 W/m2
01:56 41.2 °F 37.6 °F 29.90 in WNW 4.0 mph 7.0 mph 87% 0.08 in 0 W/m2
02:02 41.0 °F 37.4 °F 29.90 in WNW 4.0 mph 4.0 mph 87% 0.08 in 0 W/m2
02:08 40.7 °F 37.1 °F 29.92 in WNW 4.0 mph 8.0 mph 87% 0.05 in 0 W/m2
02:14 40.4 °F 36.8 °F 29.92 in WNW 4.0 mph 6.0 mph 87% 0.04 in 0 W/m2
02:20 40.2 °F 36.6 °F 29.94 in West 4.0 mph 8.0 mph 87% 0.04 in 0 W/m2
02:26 40.1 °F 36.5 °F 29.93 in West 4.0 mph 8.0 mph 87% 0.05 in 0 W/m2
02:32 40.0 °F 36.4 °F 29.93 in WNW 3.0 mph 3.0 mph 87% 0.06 in 0 W/m2
02:38 39.7 °F 36.1 °F 29.93 in WNW 4.0 mph 6.0 mph 87% 0.18 in 0 W/m2
02:44 39.3 °F 35.8 °F 29.93 in West 4.0 mph 6.0 mph 87% 0.16 in 0 W/m2
02:50 39.0 °F 35.5 °F 29.92 in WNW 5.0 mph 5.0 mph 87% 0.07 in 0 W/m2
02:56 38.8 °F 35.6 °F 29.92 in WNW 2.0 mph 5.0 mph 88% 0.07 in 0 W/m2
03:02 38.5 °F 35.3 °F 29.90 in WNW 2.0 mph 2.0 mph 88% 0.06 in 0 W/m2
03:08 38.4 °F 35.2 °F 29.92 in WNW 1.0 mph 3.0 mph 88% 0.06 in 0 W/m2
03:14 38.4 °F 35.4 °F 29.92 in WNW 1.0 mph 3.0 mph 89% 0.05 in 0 W/m2
03:20 38.3 °F 35.3 °F 29.93 in WNW 1.0 mph 2.0 mph 89% 0.09 in 0 W/m2
03:26 38.2 °F 35.2 °F 29.93 in West 2.0 mph 2.0 mph 89% 0.09 in 0 W/m2
03:32 38.1 °F 35.1 °F 29.92 in West 1.0 mph 3.0 mph 89% 0.06 in 0 W/m2
03:38 38.1 °F 35.4 °F 29.92 in West 1.0 mph 3.0 mph 90% 0.07 in 0 W/m2
03:44 37.9 °F 35.2 °F 29.93 in West 1.0 mph 1.0 mph 90% 0.07 in 0 W/m2
03:50 37.8 °F 35.1 °F 29.93 in West 1.0 mph 1.0 mph 90% 0.06 in 0 W/m2
03:56 37.6 °F 34.9 °F 29.92 in West 1.0 mph 1.0 mph 90% 0.10 in 0 W/m2
04:02 37.6 °F 34.9 °F 29.93 in Calm     90% 0.07 in 0 W/m2
04:08 37.5 °F 34.8 °F 29.92 in Calm     90% 0.07 in 0 W/m2
04:14 37.4 °F 34.7 °F 29.93 in Calm   1.0 mph 90% 0.08 in 0 W/m2
04:20 37.2 °F 34.5 °F 29.93 in NW 1.0 mph 1.0 mph 90% 0.06 in 0 W/m2
04:26 37.1 °F 34.4 °F 29.93 in NW 1.0 mph 2.0 mph 90% 0.04 in 0 W/m2
04:32 36.9 °F 34.2 °F 29.93 in West 1.0 mph 1.0 mph 90% 0.00 in 0 W/m2
04:38 36.9 °F 34.2 °F 29.93 in West 1.0 mph 1.0 mph 90% 0.00 in 0 W/m2
04:44 36.8 °F 34.1 °F 29.92 in Calm     90% 0.00 in 0 W/m2
04:50 36.8 °F 34.1 °F 29.94 in West 1.0 mph 1.0 mph 90% 0.00 in 0 W/m2
04:56 36.8 °F 34.4 °F 29.93 in West 1.0 mph 1.0 mph 91% 0.00 in 0 W/m2
05:02 36.7 °F 34.3 °F 29.93 in West 1.0 mph 1.0 mph 91% 0.00 in 0 W/m2
05:08 36.6 °F 34.2 °F 29.92 in Calm   1.0 mph 91% 0.00 in 0 W/m2
05:14 36.4 °F 34.0 °F 29.90 in Calm   3.0 mph 91% 0.00 in 0 W/m2
05:20 36.3 °F 33.9 °F 29.93 in West 1.0 mph 1.0 mph 91% 0.00 in 0 W/m2
05:26 36.3 °F 33.9 °F 29.92 in West 1.0 mph 1.0 mph 91% 0.00 in 0 W/m2
05:32 36.0 °F 33.6 °F 29.92 in Calm   1.0 mph 91% 0.00 in 0 W/m2
05:38 36.0 °F 33.6 °F 29.93 in West 1.0 mph 1.0 mph 91% 0.00 in 0 W/m2
05:44 36.1 °F 33.7 °F 29.93 in West 1.0 mph 3.0 mph 91% 0.00 in 0 W/m2
05:50 35.9 °F 33.8 °F 29.93 in Calm     92% 0.00 in 0 W/m2
05:56 35.8 °F 33.7 °F 29.93 in Calm   1.0 mph 92% 0.00 in 0 W/m2
06:02 35.9 °F 33.8 °F 29.94 in West 1.0 mph 1.0 mph 92% 0.00 in 0 W/m2
06:08 35.8 °F 33.7 °F 29.95 in Calm   3.0 mph 92% 0.00 in 0 W/m2
06:14 35.6 °F 33.5 °F 29.95 in Calm     92% 0.00 in 0 W/m2
06:16 35.5 °F 33.4 °F 29.95 in Calm     92% 0.00 in 0 W/m2
06:22 35.1 °F 33.0 °F 29.94 in Calm   2.0 mph 92% 0.00 in 0 W/m2
06:28 34.6 °F 32.5 °F 29.93 in Calm   2.0 mph 92% 0.00 in 0 W/m2
06:34 34.2 °F 32.1 °F 29.93 in Calm     92% 0.00 in 5 W/m2
06:40 33.7 °F 31.6 °F 29.93 in Calm     92% 0.00 in 5 W/m2
06:46 33.9 °F 31.8 °F 29.93 in Calm   2.0 mph 92% 0.00 in 9 W/m2
06:52 34.0 °F 31.9 °F 29.93 in Calm     92% 0.00 in 11 W/m2
06:58 34.2 °F 32.1 °F 29.93 in Calm     92% 0.00 in 14 W/m2
07:04 33.9 °F 31.8 °F 29.93 in Calm     92% 0.00 in 21 W/m2
07:10 33.8 °F 31.7 °F 29.93 in Calm     92% 0.00 in 21 W/m2
07:16 34.0 °F 31.9 °F 29.93 in Calm     92% 0.00 in 32 W/m2
07:22 34.6 °F 32.5 °F 29.92 in Calm   1.0 mph 92% 0.00 in 35 W/m2
07:28 35.2 °F 33.1 °F 29.92 in SSE 1.0 mph 3.0 mph 92% 0.00 in 35 W/m2
07:34 35.6 °F 33.5 °F 29.92 in SSE 2.0 mph 2.0 mph 92% 0.00 in 77 W/m2
07:40 36.5 °F 34.4 °F 29.92 in South 2.0 mph 3.0 mph 92% 0.00 in 88 W/m2
07:46 37.2 °F 35.4 °F 29.91 in South 2.0 mph 3.0 mph 93% 0.00 in 144 W/m2
07:52 38.0 °F 35.9 °F 29.91 in SSW 2.0 mph 3.0 mph 92% 0.00 in 79 W/m2
07:58 38.5 °F 36.4 °F 29.91 in SSW 2.0 mph 3.0 mph 92% 0.00 in 158 W/m2
08:04 39.1 °F 37.0 °F 29.90 in South 2.0 mph 3.0 mph 92% 0.00 in 137 W/m2
08:10 39.8 °F 37.1 °F 29.90 in South 3.0 mph 3.0 mph 90% 0.00 in 183 W/m2
08:16 40.4 °F 37.1 °F 29.90 in South 2.0 mph 5.0 mph 88% 0.00 in 169 W/m2
08:22 40.9 °F 36.7 °F 29.89 in SSW 3.0 mph 3.0 mph 85% 0.00 in 151 W/m2
08:28 41.6 °F 37.1 °F 29.89 in South 3.0 mph 3.0 mph 84% 0.00 in 195 W/m2
08:34 42.2 °F 36.2 °F 29.89 in SW 3.0 mph 9.0 mph 79% 0.00 in 283 W/m2
08:40 42.5 °F 35.5 °F 29.89 in SSW 5.0 mph 5.0 mph 76% 0.00 in 315 W/m2
08:46 43.0 °F 35.3 °F 29.89 in SSW 4.0 mph 5.0 mph 74% 0.00 in 295 W/m2
08:52 43.5 °F 35.4 °F 29.89 in South 4.0 mph 4.0 mph 73% 0.00 in 388 W/m2
08:58 44.0 °F 35.2 °F 29.89 in WNW 4.0 mph 7.0 mph 71% 0.00 in 427 W/m2
09:04 44.6 °F 35.8 °F 29.89 in SSW 4.0 mph 4.0 mph 71% 0.00 in 446 W/m2
09:10 44.9 °F 35.0 °F 29.89 in SW 4.0 mph 6.0 mph 68% 0.00 in 462 W/m2
09:16 45.2 °F 34.9 °F 29.89 in SW 4.0 mph 7.0 mph 67% 0.00 in 475 W/m2
09:22 45.2 °F 34.9 °F 29.88 in South 6.0 mph 6.0 mph 67% 0.00 in 487 W/m2
09:28 45.8 °F 35.1 °F 29.87 in SSW 6.0 mph 9.0 mph 66% 0.00 in 508 W/m2
09:34 46.0 °F 35.3 °F 29.87 in SW 5.0 mph 10.0 mph 66% 0.00 in 529 W/m2
09:40 46.6 °F 35.5 °F 29.87 in SW 5.0 mph 5.0 mph 65% 0.00 in 615 W/m2
09:46 46.5 °F 34.6 °F 29.86 in SSE 5.0 mph 7.0 mph 63% 0.00 in 165 W/m2
09:52 45.8 °F 32.7 °F 29.86 in SW 6.0 mph 6.0 mph 60% 0.00 in 134 W/m2
09:58 45.4 °F 33.1 °F 29.86 in SW 5.0 mph 9.0 mph 62% 0.00 in 121 W/m2
10:04 45.3 °F 33.0 °F 29.86 in South 5.0 mph 8.0 mph 62% 0.00 in 127 W/m2
10:10 45.4 °F 33.1 °F 29.86 in South 5.0 mph 5.0 mph 62% 0.00 in 504 W/m2
10:16 46.8 °F 34.0 °F 29.85 in SW 5.0 mph 9.0 mph 61% 0.00 in 613 W/m2
10:22 47.3 °F 33.3 °F 29.85 in SW 7.0 mph 8.0 mph 58% 0.00 in 621 W/m2
10:28 47.5 °F 32.1 °F 29.84 in SW 7.0 mph 13.0 mph 55% 0.00 in 628 W/m2
10:34 48.2 °F 33.7 °F 29.84 in West 6.0 mph 7.0 mph 57% 0.00 in 638 W/m2
10:40 48.5 °F 33.5 °F 29.84 in SW 6.0 mph 6.0 mph 56% 0.00 in 647 W/m2
10:46 48.8 °F 32.9 °F 29.83 in SSW 6.0 mph 7.0 mph 54% 0.00 in 656 W/m2
10:52 49.3 °F 32.9 °F 29.83 in SW 7.0 mph 8.0 mph 53% 0.00 in 661 W/m2
10:58 49.6 °F 32.2 °F 29.83 in SW 6.0 mph 13.0 mph 51% 0.00 in 671 W/m2
11:04 49.8 °F 32.9 °F 29.82 in SW 7.0 mph 14.0 mph 52% 0.00 in 677 W/m2
11:10 49.5 °F 32.1 °F 29.82 in SW 8.0 mph 8.0 mph 51% 0.00 in 680 W/m2
11:16 50.1 °F 33.6 °F 29.81 in South 7.0 mph 8.0 mph 53% 0.00 in 686 W/m2
11:22 50.2 °F 32.8 °F 29.81 in SW 6.0 mph 16.0 mph 51% 0.00 in 694 W/m2
11:28 50.6 °F 33.6 °F 29.80 in South 7.0 mph 16.0 mph 52% 0.00 in 707 W/m2
11:34 51.0 °F 32.5 °F 29.80 in SW 7.0 mph 15.0 mph 49% 0.00 in 489 W/m2
11:40 50.9 °F 32.4 °F 29.80 in SSE 7.0 mph 8.0 mph 49% 0.00 in 744 W/m2
11:46 50.6 °F 31.6 °F 29.79 in SW 8.0 mph 9.0 mph 48% 0.00 in 98 W/m2
11:52 49.7 °F 30.8 °F 29.79 in SW 7.0 mph 8.0 mph 48% 0.00 in 72 W/m2
11:58 49.2 °F 31.8 °F 29.79 in SSW 6.0 mph 12.0 mph 51% 0.00 in 19 W/m2
12:04 48.5 °F 32.1 °F 29.80 in West 7.0 mph 12.0 mph 53% 0.00 in 18 W/m2
12:10 47.1 °F 33.1 °F 29.80 in West 8.0 mph 19.0 mph 58% 0.00 in 60 W/m2
12:16 46.0 °F 34.9 °F 29.79 in SW 9.0 mph 19.0 mph 65% 0.10 in 93 W/m2
12:22 46.7 °F 34.0 °F 29.78 in WNW 6.0 mph 7.0 mph 61% 0.07 in 54 W/m2
12:28 46.9 °F 33.3 °F 29.78 in West 6.0 mph 9.0 mph 59% 0.04 in 88 W/m2
12:34 47.6 °F 31.8 °F 29.78 in WSW 5.0 mph 8.0 mph 54% 0.00 in 114 W/m2
12:40 48.8 °F 30.5 °F 29.78 in WNW 6.0 mph 8.0 mph 49% 0.00 in 715 W/m2
12:46 50.2 °F 28.5 °F 29.77 in WNW 6.0 mph 9.0 mph 43% 0.00 in 786 W/m2
12:52 50.4 °F 27.6 °F 29.76 in WSW 6.0 mph 7.0 mph 41% 0.00 in 745 W/m2
12:58 51.4 °F 23.9 °F 29.76 in SW 9.0 mph 12.0 mph 34% 0.00 in 752 W/m2
13:04 52.4 °F 24.8 °F 29.76 in WNW 9.0 mph 12.0 mph 34% 0.00 in 768 W/m2
13:10 52.3 °F 22.5 °F 29.76 in West 9.0 mph 10.0 mph 31% 0.00 in 548 W/m2
13:16 50.8 °F 21.2 °F 29.76 in NW 9.0 mph 11.0 mph 31% 0.00 in 188 W/m2
13:22 49.4 °F 22.2 °F 29.75 in West 8.0 mph 12.0 mph 34% 0.00 in 139 W/m2
13:28 49.0 °F 22.5 °F 29.76 in West 7.0 mph 12.0 mph 35% 0.00 in 97 W/m2
13:34 49.0 °F 22.5 °F 29.76 in West 6.0 mph 7.0 mph 35% 0.00 in 130 W/m2
13:40 49.0 °F 23.2 °F 29.77 in SW 7.0 mph 11.0 mph 36% 0.00 in 88 W/m2
13:46 47.5 °F 24.3 °F 29.78 in SW 10.0 mph 12.0 mph 40% 0.00 in 62 W/m2
13:52 47.0 °F 23.3 °F 29.77 in West 11.0 mph 16.0 mph 39% 0.00 in 107 W/m2
13:58 47.2 °F 24.1 °F 29.76 in SSW 8.0 mph 19.0 mph 40% 0.00 in 128 W/m2
14:04 47.6 °F 25.0 °F 29.75 in West 8.0 mph 8.0 mph 41% 0.00 in 163 W/m2
14:10 48.6 °F 25.3 °F 29.75 in SW 6.0 mph 6.0 mph 40% 0.00 in 693 W/m2
14:16 49.7 °F 24.5 °F 29.75 in SW 5.0 mph 6.0 mph 37% 0.00 in 450 W/m2
14:22 49.9 °F 24.0 °F 29.74 in WSW 5.0 mph 10.0 mph 36% 0.00 in 223 W/m2
14:28 50.2 °F 22.2 °F 29.74 in WSW 5.0 mph 10.0 mph 33% 0.00 in 330 W/m2
14:34 50.6 °F 21.0 °F 29.73 in SSW 6.0 mph 8.0 mph 31% 0.00 in 220 W/m2
14:40 50.8 °F 18.8 °F 29.73 in West 6.0 mph 6.0 mph 28% 0.00 in 195 W/m2
14:46 51.0 °F 19.8 °F 29.73 in WSW 6.0 mph 6.0 mph 29% 0.00 in 153 W/m2
14:52 51.0 °F 18.1 °F 29.73 in WSW 6.0 mph 13.0 mph 27% 0.00 in 306 W/m2
14:58 52.9 °F 20.6 °F 29.73 in WSW 6.0 mph 16.0 mph 28% 0.00 in 589 W/m2
15:04 52.9 °F 18.9 °F 29.73 in WSW 7.0 mph 10.0 mph 26% 0.00 in 362 W/m2
15:10 52.6 °F 17.7 °F 29.72 in NW 6.0 mph 9.0 mph 25% 0.00 in 229 W/m2
15:16 52.0 °F 17.2 °F 29.72 in West 8.0 mph 11.0 mph 25% 0.00 in 257 W/m2
15:22 51.9 °F 18.0 °F 29.72 in SW 6.0 mph 10.0 mph 26% 0.00 in 139 W/m2
15:28 51.4 °F 17.6 °F 29.72 in SW 8.0 mph 10.0 mph 26% 0.00 in 102 W/m2
15:34 51.1 °F 16.4 °F 29.72 in WSW 10.0 mph 12.0 mph 25% 0.00 in 128 W/m2
15:40 50.9 °F 18.1 °F 29.72 in NW 10.0 mph 10.0 mph 27% 0.00 in 100 W/m2
15:46 50.6 °F 18.6 °F 29.72 in West 7.0 mph 20.0 mph 28% 0.00 in 83 W/m2
15:52 50.5 °F 19.4 °F 29.72 in WNW 8.0 mph 8.0 mph 29% 0.00 in 118 W/m2
15:58 50.2 °F 19.1 °F 29.72 in West 8.0 mph 8.0 mph 29% 0.00 in 74 W/m2
16:04 50.1 °F 19.8 °F 29.72 in SSW 7.0 mph 7.0 mph 30% 0.00 in 60 W/m2
16:10 50.1 °F 19.8 °F 29.72 in SW 6.0 mph 6.0 mph 30% 0.00 in 107 W/m2
16:16 50.0 °F 20.5 °F 29.72 in WSW 6.0 mph 16.0 mph 31% 0.00 in 74 W/m2
16:22 50.1 °F 19.8 °F 29.73 in SW 6.0 mph 7.0 mph 30% 0.00 in 47 W/m2
16:28 49.7 °F 21.7 °F 29.73 in WSW 8.0 mph 13.0 mph 33% 0.00 in 67 W/m2
16:34 50.0 °F 21.3 °F 29.72 in SSW 10.0 mph 17.0 mph 32% 0.00 in 383 W/m2
16:40 49.8 °F 21.1 °F 29.72 in SSW 10.0 mph 10.0 mph 32% 0.00 in 72 W/m2
16:46 49.1 °F 21.2 °F 29.72 in WSW 9.0 mph 10.0 mph 33% 0.00 in 229 W/m2
16:52 49.7 °F 20.2 °F 29.72 in WSW 9.0 mph 9.0 mph 31% 0.00 in 65 W/m2
16:58 49.5 °F 20.8 °F 29.72 in West 6.0 mph 9.0 mph 32% 0.00 in 33 W/m2
17:04 49.4 °F 20.0 °F 29.71 in SSW 5.0 mph 10.0 mph 31% 0.00 in 42 W/m2
17:10 49.6 °F 20.2 °F 29.71 in SW 6.0 mph 6.0 mph 31% 0.00 in 35 W/m2
17:16 49.6 °F 18.6 °F 29.71 in SW 5.0 mph 7.0 mph 29% 0.00 in 35 W/m2
17:22 49.9 °F 18.9 °F 29.70 in SSW 4.0 mph 7.0 mph 29% 0.00 in 26 W/m2
17:28 49.8 °F 18.8 °F 29.70 in SW 3.0 mph 7.0 mph 29% 0.00 in 14 W/m2
17:34 49.7 °F 19.5 °F 29.71 in SW 3.0 mph 3.0 mph 30% 0.00 in 9 W/m2
17:40 49.5 °F 20.1 °F 29.71 in SW 2.0 mph 4.0 mph 31% 0.00 in 12 W/m2
17:46 49.6 °F 18.6 °F 29.70 in West 3.0 mph 8.0 mph 29% 0.00 in 7 W/m2
17:52 50.1 °F 17.4 °F 29.71 in WSW 4.0 mph 5.0 mph 27% 0.00 in 0 W/m2
17:58 50.0 °F 18.9 °F 29.71 in SSW 4.0 mph 5.0 mph 29% 0.00 in 0 W/m2
18:04 49.8 °F 19.6 °F 29.72 in WSW 4.0 mph 12.0 mph 30% 0.00 in 0 W/m2
18:10 50.4 °F 18.5 °F 29.72 in West 7.0 mph 14.0 mph 28% 0.00 in 0 W/m2
18:16 50.5 °F 18.6 °F 29.72 in West 7.0 mph 14.0 mph 28% 0.00 in 0 W/m2
18:22 50.2 °F 19.1 °F 29.72 in West 5.0 mph 6.0 mph 29% 0.00 in 0 W/m2
18:28 49.9 °F 19.7 °F 29.73 in West 4.0 mph 6.0 mph 30% 0.00 in 0 W/m2
18:34 49.8 °F 18.8 °F 29.73 in West 3.0 mph 4.0 mph 29% 0.00 in 0 W/m2
18:40 49.7 °F 19.5 °F 29.73 in West 4.0 mph 8.0 mph 30% 0.00 in 0 W/m2
18:46 49.9 °F 21.2 °F 29.73 in WSW 6.0 mph 18.0 mph 32% 0.00 in 0 W/m2
18:52 49.9 °F 21.2 °F 29.73 in West 8.0 mph 18.0 mph 32% 0.00 in 0 W/m2
18:58 49.8 °F 21.8 °F 29.73 in WSW 9.0 mph 18.0 mph 33% 0.00 in 0 W/m2
19:04 49.7 °F 21.7 °F 29.73 in West 8.0 mph 10.0 mph 33% 0.00 in 0 W/m2
19:10 49.6 °F 21.6 °F 29.73 in SW 7.0 mph 9.0 mph 33% 0.00 in 0 W/m2
19:16 50.0 °F 19.7 °F 29.73 in WSW 9.0 mph 13.0 mph 30% 0.00 in 0 W/m2
19:22 49.7 °F 18.7 °F 29.75 in West 9.0 mph 9.0 mph 29% 0.00 in 0 W/m2
19:28 49.8 °F 18.0 °F 29.73 in West 10.0 mph 14.0 mph 28% 0.00 in 0 W/m2
19:34 49.8 °F 17.1 °F 29.73 in West 11.0 mph 11.0 mph 27% 0.00 in 0 W/m2
19:40 49.3 °F 16.7 °F 29.74 in West 9.0 mph 10.0 mph 27% 0.00 in 0 W/m2
19:46 49.3 °F 15.8 °F 29.73 in WSW 8.0 mph 16.0 mph 26% 0.00 in 0 W/m2
19:52 49.0 °F 14.7 °F 29.75 in SW 9.0 mph 9.0 mph 25% 0.00 in 0 W/m2
19:58 48.9 °F 16.3 °F 29.74 in West 9.0 mph 15.0 mph 27% 0.00 in 0 W/m2
20:04 48.8 °F 15.4 °F 29.76 in West 9.0 mph 9.0 mph 26% 0.00 in 0 W/m2
20:10 46.8 °F 22.5 °F 29.78 in WNW 9.0 mph 9.0 mph 38% 0.00 in 0 W/m2
20:16 45.1 °F 23.9 °F 29.78 in NW 7.0 mph 9.0 mph 43% 0.00 in 0 W/m2
20:22 44.2 °F 24.7 °F 29.78 in WNW 6.0 mph 6.0 mph 46% 0.00 in 0 W/m2
20:28 43.6 °F 25.2 °F 29.78 in WNW 6.0 mph 7.0 mph 48% 0.00 in 0 W/m2
20:34 43.2 °F 25.3 °F 29.78 in WNW 7.0 mph 11.0 mph 49% 0.00 in 0 W/m2
20:40 42.8 °F 25.9 °F 29.78 in WNW 6.0 mph 6.0 mph 51% 0.00 in 0 W/m2
20:46 42.4 °F 26.5 °F 29.78 in NW 6.0 mph 7.0 mph 53% 0.00 in 0 W/m2
20:52 42.0 °F 26.5 °F 29.79 in NW 4.0 mph 5.0 mph 54% 0.00 in 0 W/m2
20:58 41.9 °F 26.4 °F 29.79 in WNW 3.0 mph 5.0 mph 54% 0.00 in 0 W/m2
21:04 41.7 °F 26.3 °F 29.79 in WNW 3.0 mph 5.0 mph 54% 0.00 in 0 W/m2
21:10 41.6 °F 26.2 °F 29.79 in WNW 2.0 mph 2.0 mph 54% 0.00 in 0 W/m2
21:16 41.5 °F 26.1 °F 29.79 in WNW 2.0 mph 2.0 mph 54% 0.00 in 0 W/m2
21:22 41.3 °F 25.9 °F 29.80 in WNW 2.0 mph 4.0 mph 54% 0.00 in 0 W/m2
21:28 41.4 °F 25.5 °F 29.79 in West 2.0 mph 4.0 mph 53% 0.00 in 0 W/m2
21:34 41.2 °F 25.3 °F 29.80 in SW 2.0 mph 4.0 mph 53% 0.00 in 0 W/m2
21:40 41.1 °F 25.7 °F 29.80 in NW 2.0 mph 2.0 mph 54% 0.00 in 0 W/m2
21:46 40.9 °F 25.5 °F 29.80 in West 1.0 mph 3.0 mph 54% 0.00 in 0 W/m2
21:52 40.6 °F 25.7 °F 29.80 in WSW 1.0 mph 1.0 mph 55% 0.00 in 0 W/m2
21:58 40.5 °F 25.6 °F 29.80 in Calm   2.0 mph 55% 0.00 in 0 W/m2
22:04 40.2 °F 25.7 °F 29.80 in Calm   1.0 mph 56% 0.00 in 0 W/m2
22:10 39.8 °F 25.4 °F 29.80 in Calm     56% 0.00 in 0 W/m2
22:16 39.4 °F 25.4 °F 29.79 in Calm     57% 0.00 in 0 W/m2
22:22 39.2 °F 25.2 °F 29.80 in Calm     57% 0.00 in 0 W/m2
22:28 39.0 °F 25.0 °F 29.80 in Calm     57% 0.00 in 0 W/m2
22:34 38.9 °F 24.9 °F 29.80 in Calm     57% 0.00 in 0 W/m2
22:40 39.0 °F 25.0 °F 29.80 in Calm     57% 0.00 in 0 W/m2
22:46 38.9 °F 25.4 °F 29.80 in Calm   1.0 mph 58% 0.00 in 0 W/m2
22:52 38.8 °F 25.3 °F 29.81 in Calm   1.0 mph 58% 0.00 in 0 W/m2
22:58 38.8 °F 25.3 °F 29.81 in WSW 1.0 mph 2.0 mph 58% 0.00 in 0 W/m2
23:04 38.8 °F 25.3 °F 29.81 in WSW 1.0 mph 1.0 mph 58% 0.00 in 0 W/m2
23:10 38.7 °F 25.6 °F 29.81 in Calm     59% 0.00 in 0 W/m2
23:16 38.4 °F 25.3 °F 29.81 in Calm   1.0 mph 59% 0.00 in 0 W/m2
23:22 38.3 °F 25.2 °F 29.81 in Calm     59% 0.00 in 0 W/m2
23:28 38.3 °F 25.2 °F 29.81 in Calm     59% 0.00 in 0 W/m2
23:34 38.3 °F 25.2 °F 29.81 in Calm     59% 0.00 in 0 W/m2
23:40 38.4 °F 25.3 °F 29.81 in WSW 1.0 mph 3.0 mph 59% 0.00 in 0 W/m2
23:46 39.0 °F 24.6 °F 29.81 in WSW 2.0 mph 4.0 mph 56% 0.00 in 0 W/m2
23:52 39.5 °F 24.7 °F 29.81 in West 3.0 mph 3.0 mph 55% 0.00 in 0 W/m2
23:58 39.5 °F 24.7 °F 29.81 in WSW 2.0 mph 3.0 mph 55% 0.00 in 0 W/m2
Country Meadow, Clay, NY, USA
Compliments of Weather Underground - 2 mb